createdAt,value
2023-02-17T00:00:16.347Z,33.77
2023-02-17T00:02:43.319Z,32.83
2023-02-17T00:05:10.194Z,34.70
2023-02-17T00:07:37.082Z,32.97
2023-02-17T00:10:04.629Z,32.63
2023-02-17T00:12:31.600Z,32.20
2023-02-17T00:14:58.595Z,34.00
2023-02-17T00:17:26.172Z,33.73
2023-02-17T00:19:54.410Z,34.90
2023-02-17T00:22:21.376Z,33.00
2023-02-17T00:24:48.371Z,33.00
2023-02-17T00:27:15.194Z,33.07
2023-02-17T00:29:42.291Z,33.63
2023-02-17T00:32:10.720Z,31.17
2023-02-17T00:34:37.964Z,31.80
2023-02-17T00:37:04.903Z,32.83
2023-02-17T00:39:33.365Z,33.03
2023-02-17T00:42:00.142Z,31.47
2023-02-17T00:44:29.644Z,31.07
2023-02-17T00:46:57.435Z,34.60
2023-02-17T00:49:25.905Z,31.20
2023-02-17T00:51:52.930Z,30.73
2023-02-17T00:54:19.925Z,31.30
2023-02-17T00:56:46.830Z,33.53
2023-02-17T00:59:13.985Z,31.33
2023-02-17T01:01:41.451Z,34.10
2023-02-17T01:04:09.626Z,31.23
2023-02-17T01:06:37.728Z,32.60
2023-02-17T01:09:07.902Z,31.93
2023-02-17T01:11:35.944Z,32.33
2023-02-17T01:14:06.721Z,30.43
2023-02-17T01:16:37.920Z,32.13
2023-02-17T01:19:06.534Z,31.70
2023-02-17T01:21:33.662Z,31.57
2023-02-17T01:24:02.916Z,32.63
2023-02-17T01:26:30.864Z,32.67
2023-02-17T01:28:58.019Z,31.93
2023-02-17T01:31:27.362Z,32.57
2023-02-17T01:33:57.939Z,31.67
2023-02-17T01:36:25.289Z,32.27
2023-02-17T01:38:52.152Z,31.97
2023-02-17T01:41:20.536Z,31.53
2023-02-17T01:44:06.053Z,33.13
2023-02-17T01:46:33.829Z,31.97
2023-02-17T01:49:03.135Z,30.73
2023-02-17T01:51:33.694Z,28.30
2023-02-17T01:54:06.506Z,30.70
2023-02-17T01:56:35.025Z,32.07
2023-02-17T01:59:05.520Z,31.03
2023-02-17T02:01:32.935Z,30.73
2023-02-17T02:04:01.086Z,32.17
2023-02-17T02:06:29.130Z,29.37
2023-02-17T02:09:01.377Z,28.97
2023-02-17T02:11:28.954Z,28.87
2023-02-17T02:13:56.274Z,30.33
2023-02-17T02:16:23.128Z,29.07
2023-02-17T02:19:05.216Z,28.40
2023-02-17T02:21:53.988Z,29.63
2023-02-17T02:24:23.606Z,28.47
2023-02-17T02:27:04.261Z,27.63
2023-02-17T02:29:37.217Z,28.90
2023-02-17T02:32:16.164Z,29.47
2023-02-17T02:34:45.621Z,28.90
2023-02-17T02:37:18.304Z,28.67
2023-02-17T02:39:47.672Z,30.27
2023-02-17T02:42:17.958Z,28.73
2023-02-17T02:44:44.890Z,29.53
2023-02-17T02:47:45.018Z,29.77
2023-02-17T02:50:18.574Z,29.00
2023-02-17T02:52:48.200Z,27.57
2023-02-17T02:55:26.040Z,29.27
2023-02-17T02:57:55.910Z,28.67
2023-02-17T03:00:30.531Z,29.73
2023-02-17T03:03:15.512Z,29.77
2023-02-17T03:05:42.291Z,28.57
2023-02-17T03:08:12.273Z,28.97
2023-02-17T03:10:49.953Z,29.77
2023-02-17T03:13:17.626Z,27.73
2023-02-17T03:15:44.568Z,28.63
2023-02-17T03:18:11.615Z,28.53
2023-02-17T03:20:49.237Z,25.93
2023-02-17T03:23:16.287Z,28.87
2023-02-17T03:25:45.217Z,27.93
2023-02-17T03:28:12.865Z,28.40
2023-02-17T03:30:41.052Z,27.70
2023-02-17T03:33:08.114Z,27.53
2023-02-17T03:35:35.112Z,26.23
2023-02-17T03:38:02.071Z,28.17
2023-02-17T03:40:28.961Z,25.87
2023-02-17T03:42:56.350Z,25.30
2023-02-17T03:45:23.714Z,25.70
2023-02-17T03:47:50.471Z,24.73
2023-02-17T03:50:17.386Z,26.50
2023-02-17T03:52:45.060Z,28.00
2023-02-17T03:55:11.816Z,25.37
2023-02-17T03:57:38.684Z,25.93
2023-02-17T04:00:06.750Z,24.60
2023-02-17T04:02:42.163Z,26.50
2023-02-17T04:05:10.594Z,25.43
2023-02-17T04:07:37.339Z,24.77
2023-02-17T04:10:06.611Z,26.03
2023-02-17T04:12:34.606Z,24.40
2023-02-17T04:15:01.405Z,24.67
2023-02-17T04:17:28.274Z,24.70
2023-02-17T04:19:55.006Z,24.60
2023-02-17T04:22:21.852Z,25.47
2023-02-17T04:24:48.617Z,26.33
2023-02-17T04:27:15.422Z,25.57
2023-02-17T04:29:42.390Z,26.53
2023-02-17T04:32:09.186Z,25.53
2023-02-17T04:34:36.018Z,26.77
2023-02-17T04:37:02.902Z,27.40
2023-02-17T04:39:29.731Z,27.63
2023-02-17T04:41:56.480Z,28.10
2023-02-17T04:44:23.341Z,26.33
2023-02-17T04:46:50.104Z,26.17
2023-02-17T04:49:16.935Z,24.03
2023-02-17T04:51:43.811Z,26.10
2023-02-17T04:54:10.740Z,24.80
2023-02-17T04:56:37.497Z,25.23
2023-02-17T04:59:04.576Z,23.67
2023-02-17T05:01:31.451Z,24.90
2023-02-17T05:03:58.207Z,24.87
2023-02-17T05:06:25.031Z,25.17
2023-02-17T05:08:53.891Z,23.30
2023-02-17T05:11:20.670Z,24.37
2023-02-17T05:13:47.540Z,24.37
2023-02-17T05:16:14.329Z,24.87
2023-02-17T05:18:41.124Z,23.50
2023-02-17T05:21:07.991Z,25.40
2023-02-17T05:23:41.232Z,23.80
2023-02-17T05:26:11.468Z,23.80
2023-02-17T05:28:38.425Z,24.43
2023-02-17T05:31:05.651Z,23.60
2023-02-17T05:33:33.076Z,23.40
2023-02-17T05:36:04.347Z,22.60
2023-02-17T05:38:31.540Z,23.13
2023-02-17T05:40:58.285Z,24.07
2023-02-17T05:43:25.242Z,23.77
2023-02-17T05:45:52.142Z,24.10
2023-02-17T05:48:19.008Z,24.60
2023-02-17T05:50:45.736Z,25.53
2023-02-17T05:53:12.663Z,24.13
2023-02-17T05:55:39.412Z,23.53
2023-02-17T05:58:06.299Z,23.73
2023-02-17T06:00:33.091Z,23.23
2023-02-17T06:03:00.027Z,24.43
2023-02-17T06:05:26.914Z,23.67
2023-02-17T06:07:53.813Z,22.20
2023-02-17T06:10:20.765Z,23.67
2023-02-17T06:12:47.555Z,23.67
2023-02-17T06:15:14.392Z,23.80
2023-02-17T06:17:41.578Z,23.77
2023-02-17T06:20:08.692Z,23.30
2023-02-17T06:22:35.904Z,19.90
2023-02-17T06:25:02.808Z,24.53
2023-02-17T06:27:29.689Z,26.27
2023-02-17T06:29:56.722Z,26.20
2023-02-17T06:32:23.527Z,25.47
2023-02-17T06:34:50.636Z,27.60
2023-02-17T06:37:17.385Z,27.37
2023-02-17T06:39:44.202Z,27.10
2023-02-17T06:42:10.977Z,27.40
2023-02-17T06:44:37.766Z,27.30
2023-02-17T06:47:04.724Z,26.43
2023-02-17T06:49:31.496Z,26.63
2023-02-17T06:51:58.273Z,27.90
2023-02-17T06:54:25.192Z,26.23
2023-02-17T06:56:51.943Z,26.27
2023-02-17T06:59:18.713Z,25.90
2023-02-17T07:01:45.781Z,27.07
2023-02-17T07:04:12.608Z,26.00
2023-02-17T07:06:39.433Z,27.30
2023-02-17T07:09:06.329Z,27.17
2023-02-17T07:11:33.240Z,21.87
2023-02-17T07:14:00.250Z,23.67
2023-02-17T07:16:27.145Z,21.20
2023-02-17T07:18:54.118Z,22.63
2023-02-17T07:21:20.871Z,23.17
2023-02-17T07:23:48.548Z,22.20
2023-02-17T07:26:15.854Z,21.97
2023-02-17T07:28:42.645Z,24.33
2023-02-17T07:31:10.764Z,24.07
2023-02-17T07:33:37.834Z,23.87
2023-02-17T07:36:08.761Z,23.80
2023-02-17T07:38:36.091Z,23.23
2023-02-17T07:41:06.680Z,24.10
2023-02-17T07:43:34.606Z,24.47
2023-02-17T07:46:03.308Z,23.73
2023-02-17T07:48:30.216Z,24.77
2023-02-17T07:50:57.330Z,24.20
2023-02-17T07:53:24.076Z,24.80
2023-02-17T07:55:51.469Z,22.03
2023-02-17T07:58:18.637Z,22.67
2023-02-17T08:00:45.525Z,22.03
2023-02-17T08:03:12.295Z,23.70
2023-02-17T08:05:40.918Z,22.20
2023-02-17T08:08:26.810Z,24.90
2023-02-17T08:11:12.376Z,24.30
2023-02-17T08:13:39.223Z,24.63
2023-02-17T08:16:06.443Z,24.67
2023-02-17T08:18:36.447Z,23.27
2023-02-17T08:21:04.584Z,22.83
2023-02-17T08:23:31.522Z,24.63
2023-02-17T08:25:59.528Z,23.47
2023-02-17T08:28:26.398Z,23.77
2023-02-17T08:30:53.341Z,22.77
2023-02-17T08:33:20.444Z,22.80
2023-02-17T08:35:47.405Z,19.23
2023-02-17T08:38:15.397Z,23.73
2023-02-17T08:40:42.327Z,23.93
2023-02-17T08:43:09.399Z,22.90
2023-02-17T08:45:37.307Z,22.70
2023-02-17T08:48:05.297Z,25.23
2023-02-17T08:50:32.633Z,22.53
2023-02-17T08:52:59.638Z,21.67
2023-02-17T08:55:26.532Z,22.00
2023-02-17T08:57:54.172Z,23.10
2023-02-17T09:00:21.319Z,20.80
2023-02-17T09:02:48.337Z,21.83
2023-02-17T09:05:15.260Z,20.33
2023-02-17T09:07:42.094Z,21.67
2023-02-17T09:10:09.595Z,21.87
2023-02-17T09:12:36.858Z,21.57
2023-02-17T09:15:04.216Z,20.63
2023-02-17T09:17:31.041Z,21.23
2023-02-17T09:19:57.995Z,19.97
2023-02-17T09:22:31.913Z,21.60
2023-02-17T09:24:59.443Z,19.87
2023-02-17T09:27:26.228Z,21.37
2023-02-17T09:29:53.269Z,20.57
2023-02-17T09:32:20.242Z,19.67
2023-02-17T09:34:50.690Z,21.53
2023-02-17T09:37:17.954Z,22.77
2023-02-17T09:39:45.054Z,22.57
2023-02-17T09:42:22.491Z,23.27
2023-02-17T09:44:52.484Z,21.03
2023-02-17T09:47:23.278Z,20.83
2023-02-17T09:50:28.729Z,20.43
2023-02-17T09:52:55.676Z,21.00
2023-02-17T09:55:22.503Z,21.20
2023-02-17T09:57:52.586Z,18.27
2023-02-17T10:00:23.741Z,21.90
2023-02-17T10:02:56.694Z,18.90
2023-02-17T10:05:25.884Z,19.13
2023-02-17T10:08:05.470Z,20.20
2023-02-17T10:10:37.512Z,18.57
2023-02-17T10:13:05.581Z,19.97
2023-02-17T10:15:36.153Z,18.13
2023-02-17T10:18:10.626Z,17.60
2023-02-17T10:20:37.437Z,19.53
2023-02-17T10:23:11.124Z,17.83
2023-02-17T10:25:56.563Z,19.77
2023-02-17T10:28:36.094Z,16.27
2023-02-17T10:31:04.592Z,11.40
2023-02-17T10:33:35.798Z,17.67
2023-02-17T10:36:21.033Z,17.67
2023-02-17T10:38:56.069Z,18.90
2023-02-17T10:41:26.825Z,17.10
2023-02-17T10:43:54.740Z,15.83
2023-02-17T10:46:26.016Z,17.77
2023-02-17T10:48:54.000Z,15.70
2023-02-17T10:51:24.639Z,17.90
2023-02-17T10:53:52.870Z,17.63
2023-02-17T10:56:28.045Z,14.03
2023-02-17T10:59:13.415Z,17.37
2023-02-17T11:01:40.304Z,17.40
2023-02-17T11:04:08.644Z,11.77
2023-02-17T11:06:42.355Z,16.60
2023-02-17T11:09:18.517Z,18.30
2023-02-17T11:11:51.071Z,18.03
2023-02-17T11:14:24.002Z,16.03
2023-02-17T11:16:59.622Z,18.80
2023-02-17T11:19:26.515Z,16.47
2023-02-17T11:21:54.373Z,17.40
2023-02-17T11:24:21.581Z,17.93
2023-02-17T11:27:05.259Z,18.33
2023-02-17T11:29:33.390Z,18.37
2023-02-17T11:32:04.966Z,17.60
2023-02-17T11:34:36.376Z,15.30
2023-02-17T11:37:15.191Z,15.97
2023-02-17T11:39:43.621Z,15.17
2023-02-17T11:42:27.219Z,13.50
2023-02-17T11:44:55.614Z,17.37
2023-02-17T11:47:40.493Z,14.00
2023-02-17T11:50:38.994Z,17.07
2023-02-17T11:53:19.078Z,15.60
2023-02-17T11:55:59.619Z,16.37
2023-02-17T11:58:26.404Z,16.27
2023-02-17T12:01:02.219Z,16.80
2023-02-17T12:03:31.868Z,14.13
2023-02-17T12:06:18.965Z,17.23
2023-02-17T12:08:47.559Z,16.53
2023-02-17T12:11:20.095Z,16.93
2023-02-17T12:14:06.008Z,15.40
2023-02-17T12:16:32.889Z,17.30
2023-02-17T12:19:14.804Z,17.63
2023-02-17T12:21:55.845Z,21.50
2023-02-17T12:24:41.229Z,18.37
2023-02-17T12:27:31.149Z,18.87
2023-02-17T12:30:16.762Z,21.73
2023-02-17T12:33:02.726Z,17.87
2023-02-17T12:35:41.562Z,18.03
2023-02-17T12:38:13.720Z,21.30
2023-02-17T12:40:40.560Z,19.23
2023-02-17T12:43:24.371Z,20.80
2023-02-17T12:45:52.318Z,21.37
2023-02-17T12:48:40.167Z,24.20
2023-02-17T12:51:12.326Z,24.00
2023-02-17T12:53:51.115Z,22.90
2023-02-17T12:56:28.580Z,23.07
2023-02-17T12:58:59.291Z,21.13
2023-02-17T13:01:29.651Z,21.43
2023-02-17T13:03:59.159Z,22.47
2023-02-17T13:06:26.059Z,20.73
2023-02-17T13:09:22.226Z,25.70
2023-02-17T13:11:49.102Z,22.13
2023-02-17T13:14:26.268Z,24.20
2023-02-17T13:16:53.617Z,23.27
2023-02-17T13:19:30.397Z,23.27
2023-02-17T13:22:00.008Z,23.93
2023-02-17T13:24:34.997Z,24.33
2023-02-17T13:27:11.045Z,21.30
2023-02-17T13:29:38.000Z,21.10
2023-02-17T13:32:06.804Z,20.80
2023-02-17T13:34:33.746Z,22.47
2023-02-17T13:37:03.322Z,22.77
2023-02-17T13:39:32.002Z,21.03
2023-02-17T13:41:59.724Z,20.00
2023-02-17T13:44:26.582Z,20.23
2023-02-17T13:46:54.190Z,20.47
2023-02-17T13:49:26.563Z,20.40
2023-02-17T13:51:54.798Z,19.77
2023-02-17T13:54:22.628Z,20.13
2023-02-17T13:56:53.390Z,19.50
2023-02-17T13:59:27.138Z,19.17
2023-02-17T14:01:55.125Z,17.70
2023-02-17T14:04:30.746Z,17.20
2023-02-17T14:07:03.955Z,19.03
2023-02-17T14:09:32.025Z,16.40
2023-02-17T14:12:01.186Z,17.43
2023-02-17T14:14:37.918Z,16.67
2023-02-17T14:17:06.144Z,16.27
2023-02-17T14:19:43.743Z,17.07
2023-02-17T14:22:25.136Z,19.03
2023-02-17T14:24:59.258Z,20.83
2023-02-17T14:27:26.118Z,20.70
2023-02-17T14:29:52.864Z,21.20
2023-02-17T14:32:26.594Z,20.23
2023-02-17T14:34:53.361Z,18.77
2023-02-17T14:37:24.080Z,18.17
2023-02-17T14:39:51.184Z,16.47
2023-02-17T14:42:18.007Z,15.27
2023-02-17T14:44:45.004Z,15.10
2023-02-17T14:47:11.853Z,15.13
2023-02-17T14:49:38.709Z,15.47
2023-02-17T14:52:31.721Z,13.40
2023-02-17T14:54:59.344Z,11.93
2023-02-17T14:57:27.422Z,12.57
2023-02-17T14:59:57.835Z,12.80
2023-02-17T15:02:25.308Z,12.57
2023-02-17T15:04:52.250Z,13.53
2023-02-17T15:07:19.614Z,10.97
2023-02-17T15:09:47.274Z,13.00
2023-02-17T15:12:15.740Z,11.57
2023-02-17T15:14:42.725Z,10.17
2023-02-17T15:17:09.719Z,12.27
2023-02-17T15:19:36.563Z,11.40
2023-02-17T15:22:03.943Z,11.57
2023-02-17T15:24:33.604Z,11.23
2023-02-17T15:27:04.324Z,11.67
2023-02-17T15:29:31.167Z,11.13
2023-02-17T15:31:59.913Z,12.73
2023-02-17T15:34:30.971Z,11.73
2023-02-17T15:36:58.402Z,12.30
2023-02-17T15:39:25.273Z,13.97
2023-02-17T15:41:53.721Z,13.33
2023-02-17T15:44:25.161Z,15.17
2023-02-17T15:46:53.101Z,13.67
2023-02-17T15:49:19.916Z,14.53
2023-02-17T15:51:46.864Z,12.47
2023-02-17T15:54:13.725Z,14.90
2023-02-17T15:56:43.536Z,14.00
2023-02-17T15:59:16.666Z,14.97
2023-02-17T16:01:43.781Z,14.47
2023-02-17T16:04:11.737Z,16.07
2023-02-17T16:06:39.004Z,16.60
2023-02-17T16:09:05.887Z,18.70
2023-02-17T16:11:33.708Z,16.73
2023-02-17T16:14:01.085Z,18.83
2023-02-17T16:16:32.812Z,16.43
2023-02-17T16:19:00.785Z,17.40
2023-02-17T16:21:27.676Z,19.40
2023-02-17T16:23:59.206Z,17.20
2023-02-17T16:26:28.043Z,20.33
2023-02-17T16:28:55.094Z,18.57
2023-02-17T16:31:22.206Z,19.13
2023-02-17T16:33:49.072Z,21.40
2023-02-17T16:36:17.712Z,21.20
2023-02-17T16:38:45.035Z,18.43
2023-02-17T16:41:13.270Z,18.90
2023-02-17T16:43:40.200Z,22.27
2023-02-17T16:46:07.763Z,21.17
2023-02-17T16:48:36.221Z,21.80
2023-02-17T16:51:03.032Z,21.33
2023-02-17T16:53:29.855Z,23.07
2023-02-17T16:55:56.719Z,20.37
2023-02-17T16:58:24.547Z,22.07
2023-02-17T17:00:52.530Z,21.83
2023-02-17T17:03:20.159Z,22.33
2023-02-17T17:05:47.044Z,23.23
2023-02-17T17:08:16.305Z,20.77
2023-02-17T17:10:44.292Z,24.67
2023-02-17T17:13:11.434Z,22.60
2023-02-17T17:15:45.068Z,21.27
2023-02-17T17:18:18.240Z,25.30
2023-02-17T17:20:45.562Z,23.00
2023-02-17T17:23:13.840Z,22.87
2023-02-17T17:25:45.663Z,23.13
2023-02-17T17:28:13.920Z,21.30
2023-02-17T17:30:40.654Z,23.83
2023-02-17T17:33:07.548Z,24.30
2023-02-17T17:35:34.323Z,23.97
2023-02-17T17:38:01.170Z,22.73
2023-02-17T17:40:29.937Z,24.90
2023-02-17T17:42:56.742Z,23.60
2023-02-17T17:45:24.332Z,23.67
2023-02-17T17:47:51.469Z,24.53
2023-02-17T17:50:20.837Z,24.83
2023-02-17T17:52:48.204Z,25.77
2023-02-17T17:55:15.013Z,23.67
2023-02-17T17:57:42.097Z,23.57
2023-02-17T18:00:10.445Z,21.60
2023-02-17T18:02:41.699Z,24.67
2023-02-17T18:05:08.595Z,23.20
2023-02-17T18:07:38.021Z,24.70
2023-02-17T18:10:07.706Z,23.87
2023-02-17T18:12:34.600Z,23.13
2023-02-17T18:15:04.407Z,22.13
2023-02-17T18:17:32.376Z,22.13
2023-02-17T18:19:59.318Z,23.00
2023-02-17T18:22:26.507Z,22.10
2023-02-17T18:24:53.267Z,21.07
2023-02-17T18:27:20.103Z,21.90
2023-02-17T18:29:46.901Z,18.07
2023-02-17T18:32:13.781Z,19.47
2023-02-17T18:34:40.590Z,19.47
2023-02-17T18:37:08.213Z,18.47
2023-02-17T18:39:35.000Z,18.87
2023-02-17T18:42:01.781Z,19.10
2023-02-17T18:44:28.590Z,21.97
2023-02-17T18:46:55.415Z,21.70
2023-02-17T18:49:22.344Z,18.70
2023-02-17T18:51:49.230Z,21.93
2023-02-17T18:54:16.054Z,21.80
2023-02-17T18:56:42.920Z,21.53
2023-02-17T18:59:09.761Z,19.47
2023-02-17T19:01:39.611Z,20.10
2023-02-17T19:04:07.047Z,17.73
2023-02-17T19:06:34.897Z,19.07
2023-02-17T19:09:04.264Z,20.70
2023-02-17T19:11:31.873Z,19.43
2023-02-17T19:14:00.564Z,20.80
2023-02-17T19:16:28.608Z,18.73
2023-02-17T19:18:56.243Z,21.20
2023-02-17T19:21:23.592Z,22.63
2023-02-17T19:23:50.392Z,19.37
2023-02-17T19:26:17.614Z,18.50
2023-02-17T19:28:44.719Z,17.17
2023-02-17T19:31:13.021Z,21.27
2023-02-17T19:33:39.872Z,18.63
2023-02-17T19:36:08.325Z,19.60
2023-02-17T19:38:35.380Z,17.13
2023-02-17T19:41:03.334Z,16.13
2023-02-17T19:43:30.173Z,17.50
2023-02-17T19:45:57.269Z,16.57
2023-02-17T19:48:24.409Z,19.57
2023-02-17T19:50:51.796Z,19.00
2023-02-17T19:53:19.022Z,18.00
2023-02-17T19:55:45.804Z,19.87
2023-02-17T19:58:13.015Z,19.20
2023-02-17T20:00:39.969Z,22.63
2023-02-17T20:03:06.888Z,20.80
2023-02-17T20:05:37.844Z,18.33
2023-02-17T20:08:04.766Z,15.63
2023-02-17T20:10:32.251Z,16.57
2023-02-17T20:12:59.204Z,18.03
2023-02-17T20:15:26.275Z,18.63
2023-02-17T20:17:53.678Z,17.53
2023-02-17T20:20:20.603Z,18.00
2023-02-17T20:22:47.990Z,15.90
2023-02-17T20:25:15.907Z,17.67
2023-02-17T20:27:42.964Z,16.43
2023-02-17T20:30:10.668Z,17.27
2023-02-17T20:32:37.664Z,17.80
2023-02-17T20:35:04.513Z,20.57
2023-02-17T20:37:32.087Z,19.27
2023-02-17T20:39:59.031Z,16.00
2023-02-17T20:42:26.114Z,17.37
2023-02-17T20:44:54.666Z,16.93
2023-02-17T20:47:21.483Z,18.23
2023-02-17T20:49:48.803Z,17.07
2023-02-17T20:52:15.756Z,15.57
2023-02-17T20:54:43.124Z,14.80
2023-02-17T20:57:12.359Z,14.53
2023-02-17T20:59:39.272Z,18.87
2023-02-17T21:02:06.565Z,20.33
2023-02-17T21:04:33.934Z,19.33
2023-02-17T21:07:01.557Z,20.40
2023-02-17T21:09:29.085Z,19.20
2023-02-17T21:11:56.489Z,18.50
2023-02-17T21:14:23.360Z,20.53
2023-02-17T21:16:50.944Z,20.80
2023-02-17T21:19:19.640Z,22.43
2023-02-17T21:21:47.283Z,21.10
2023-02-17T21:24:14.314Z,19.67
2023-02-17T21:26:42.063Z,20.27
2023-02-17T21:29:09.189Z,19.77
2023-02-17T21:31:37.465Z,18.73
2023-02-17T21:34:05.029Z,19.00
2023-02-17T21:36:32.196Z,19.37
2023-02-17T21:38:59.340Z,19.37
2023-02-17T21:41:28.184Z,19.57
2023-02-17T21:44:14.093Z,19.33
2023-02-17T21:46:43.419Z,18.43
2023-02-17T21:49:11.475Z,18.93
2023-02-17T21:51:39.526Z,19.47
2023-02-17T21:54:07.242Z,20.23
2023-02-17T21:56:36.855Z,19.40
2023-02-17T21:59:04.053Z,16.77
2023-02-17T22:01:31.177Z,15.17
2023-02-17T22:03:58.443Z,16.83
2023-02-17T22:06:27.335Z,16.50
2023-02-17T22:08:55.276Z,15.70
2023-02-17T22:11:24.088Z,14.30
2023-02-17T22:13:54.232Z,14.07
2023-02-17T22:16:21.881Z,14.03
2023-02-17T22:18:49.224Z,13.23
2023-02-17T22:21:16.393Z,12.50
2023-02-17T22:23:44.417Z,13.10
2023-02-17T22:26:13.074Z,12.07
2023-02-17T22:28:39.995Z,12.43
2023-02-17T22:31:07.623Z,11.40
2023-02-17T22:33:35.054Z,11.90
2023-02-17T22:36:04.572Z,10.50
2023-02-17T22:38:32.237Z,10.20
2023-02-17T22:40:59.309Z,10.67
2023-02-17T22:43:26.196Z,10.47
2023-02-17T22:46:00.074Z,8.67
2023-02-17T22:48:28.009Z,8.50
2023-02-17T22:50:54.885Z,7.77
2023-02-17T22:53:22.082Z,6.40
2023-02-17T22:55:53.423Z,6.77
2023-02-17T22:58:20.553Z,5.43
2023-02-17T23:00:48.233Z,6.68
2023-02-17T23:03:16.651Z,5.90
2023-02-17T23:05:45.005Z,6.23
2023-02-17T23:08:12.221Z,6.07
2023-02-17T23:10:42.106Z,6.57
2023-02-17T23:13:09.933Z,6.43
2023-02-17T23:15:40.788Z,6.60
2023-02-17T23:18:09.612Z,5.47
2023-02-17T23:20:39.043Z,6.07
2023-02-17T23:23:06.581Z,6.83
2023-02-17T23:25:33.989Z,7.17
2023-02-17T23:28:01.917Z,7.40
2023-02-17T23:30:29.542Z,7.40
2023-02-17T23:32:57.062Z,7.80
2023-02-17T23:35:23.948Z,7.97
2023-02-17T23:37:51.865Z,7.33
2023-02-17T23:40:19.163Z,7.20
2023-02-17T23:42:46.522Z,6.33
2023-02-17T23:45:13.608Z,6.47
2023-02-17T23:47:40.868Z,5.63
2023-02-17T23:50:08.334Z,4.13
2023-02-17T23:52:35.458Z,3.70
2023-02-17T23:55:02.216Z,4.13
2023-02-17T23:57:29.683Z,4.60
2023-02-17T23:59:56.477Z,3.70
